createdAt,value
2022-12-04T00:01:21.714Z,8.85
2022-12-04T00:03:51.885Z,9.05
2022-12-04T00:06:20.528Z,9.13
2022-12-04T00:08:48.342Z,8.48
2022-12-04T00:11:19.134Z,8.85
2022-12-04T00:13:46.071Z,8.98
2022-12-04T00:16:19.761Z,8.07
2022-12-04T00:18:47.084Z,8.70
2022-12-04T00:21:15.194Z,8.68
2022-12-04T00:23:42.767Z,8.52
2022-12-04T00:26:19.883Z,9.20
2022-12-04T00:28:47.551Z,9.48
2022-12-04T00:31:17.696Z,8.77
2022-12-04T00:33:44.942Z,8.82
2022-12-04T00:36:14.700Z,8.80
2022-12-04T00:38:42.845Z,8.50
2022-12-04T00:41:10.966Z,8.73
2022-12-04T00:43:37.622Z,9.00
2022-12-04T00:46:04.645Z,7.93
2022-12-04T00:48:31.434Z,9.07
2022-12-04T00:51:03.307Z,8.85
2022-12-04T00:53:30.006Z,9.18
2022-12-04T00:55:56.835Z,9.05
2022-12-04T00:58:23.650Z,8.85
2022-12-04T01:00:50.435Z,8.52
2022-12-04T01:03:17.568Z,9.50
2022-12-04T01:05:45.948Z,9.00
2022-12-04T01:08:13.080Z,8.75
2022-12-04T01:10:41.707Z,8.90
2022-12-04T01:13:09.186Z,9.75
2022-12-04T01:15:41.509Z,9.88
2022-12-04T01:18:08.662Z,10.35
2022-12-04T01:20:35.450Z,9.52
2022-12-04T01:23:02.215Z,11.00
2022-12-04T01:25:30.117Z,11.60
2022-12-04T01:27:56.855Z,10.88
2022-12-04T01:30:23.674Z,11.15
2022-12-04T01:32:50.451Z,10.60
2022-12-04T01:35:17.234Z,10.93
2022-12-04T01:37:43.905Z,10.10
2022-12-04T01:40:14.815Z,11.02
2022-12-04T01:42:41.519Z,11.07
2022-12-04T01:45:43.750Z,11.23
2022-12-04T01:48:36.132Z,11.13
2022-12-04T01:51:26.822Z,11.68
2022-12-04T01:53:57.379Z,11.05
2022-12-04T01:56:31.201Z,10.63
2022-12-04T01:59:01.140Z,11.95
2022-12-04T02:01:31.997Z,11.52
2022-12-04T02:04:01.978Z,11.25
2022-12-04T02:06:28.650Z,10.85
2022-12-04T02:08:55.433Z,11.00
2022-12-04T02:11:28.045Z,11.05
2022-12-04T02:14:18.544Z,10.68
2022-12-04T02:16:55.105Z,10.65
2022-12-04T02:19:47.970Z,11.27
2022-12-04T02:22:59.182Z,10.77
2022-12-04T02:25:31.690Z,10.88
2022-12-04T02:28:19.720Z,10.63
2022-12-04T02:30:47.783Z,10.30
2022-12-04T02:33:14.407Z,10.00
2022-12-04T02:35:48.020Z,9.48
2022-12-04T02:38:47.009Z,9.55
2022-12-04T02:41:16.456Z,8.85
2022-12-04T02:43:53.223Z,9.10
2022-12-04T02:46:36.533Z,8.77
2022-12-04T02:49:06.786Z,8.85
2022-12-04T02:51:36.693Z,9.32
2022-12-04T02:54:09.507Z,8.90
2022-12-04T02:56:40.692Z,8.60
2022-12-04T02:59:12.847Z,7.90
2022-12-04T03:01:45.399Z,8.65
2022-12-04T03:04:19.702Z,8.50
2022-12-04T03:06:52.783Z,8.77
2022-12-04T03:09:25.786Z,8.35
2022-12-04T03:12:00.700Z,7.47
2022-12-04T03:14:34.097Z,8.73
2022-12-04T03:17:07.739Z,8.45
2022-12-04T03:19:41.681Z,8.32
2022-12-04T03:22:13.029Z,8.02
2022-12-04T03:24:49.129Z,7.65
2022-12-04T03:27:18.898Z,7.80
2022-12-04T03:29:59.746Z,8.10
2022-12-04T03:32:47.565Z,7.35
2022-12-04T03:35:38.395Z,8.20
2022-12-04T03:38:15.191Z,7.32
2022-12-04T03:41:03.926Z,7.38
2022-12-04T03:43:49.198Z,6.53
2022-12-04T03:46:29.765Z,7.10
2022-12-04T03:49:33.387Z,6.90
2022-12-04T03:52:32.372Z,6.60
2022-12-04T03:55:26.625Z,7.07
2022-12-04T03:57:58.908Z,7.20
2022-12-04T04:00:25.915Z,6.63
2022-12-04T04:03:00.260Z,6.78
2022-12-04T04:05:29.329Z,6.10
2022-12-04T04:08:22.206Z,6.50
2022-12-04T04:10:50.666Z,6.22
2022-12-04T04:13:41.449Z,6.20
2022-12-04T04:16:30.319Z,6.97
2022-12-04T04:19:17.522Z,6.00
2022-12-04T04:22:04.827Z,6.55
2022-12-04T04:24:46.985Z,6.00
2022-12-04T04:27:13.871Z,5.82
2022-12-04T04:29:46.702Z,5.13
2022-12-04T04:32:28.089Z,4.47
2022-12-04T04:35:20.859Z,5.18
2022-12-04T04:38:11.345Z,4.25
2022-12-04T04:41:00.171Z,4.05
2022-12-04T04:43:35.881Z,4.05
2022-12-04T04:46:25.361Z,4.28
2022-12-04T04:48:56.233Z,3.22
2022-12-04T04:51:23.203Z,3.70
2022-12-04T04:53:58.141Z,3.03
2022-12-04T04:56:25.510Z,2.95
2022-12-04T04:58:52.244Z,2.60
2022-12-04T05:01:22.903Z,2.53
2022-12-04T05:03:49.675Z,2.67
2022-12-04T05:06:16.478Z,2.38
2022-12-04T05:08:44.243Z,2.95
2022-12-04T05:11:16.081Z,2.83
2022-12-04T05:13:43.131Z,2.90
2022-12-04T05:16:15.299Z,2.75
2022-12-04T05:19:01.230Z,2.53
2022-12-04T05:21:28.377Z,2.75
2022-12-04T05:23:55.028Z,2.78
2022-12-04T05:26:21.730Z,2.55
2022-12-04T05:28:48.559Z,2.97
2022-12-04T05:31:15.381Z,3.00
2022-12-04T05:33:42.398Z,3.28
2022-12-04T05:36:10.823Z,3.40
2022-12-04T05:38:37.754Z,3.55
2022-12-04T05:41:06.701Z,3.67
2022-12-04T05:43:34.230Z,2.83
2022-12-04T05:46:05.763Z,3.30
2022-12-04T05:48:34.746Z,2.90
2022-12-04T05:51:08.714Z,3.03
2022-12-04T05:53:35.802Z,2.30
2022-12-04T05:56:04.020Z,2.20
2022-12-04T05:58:30.770Z,2.25
2022-12-04T06:00:57.538Z,2.22
2022-12-04T06:03:24.398Z,1.80
2022-12-04T06:05:51.220Z,1.95
2022-12-04T06:08:18.074Z,2.08
2022-12-04T06:10:45.022Z,1.92
2022-12-04T06:13:11.819Z,2.28
2022-12-04T06:15:40.055Z,2.05
2022-12-04T06:18:07.211Z,1.90
2022-12-04T06:20:34.604Z,2.10
2022-12-04T06:23:01.822Z,2.10
2022-12-04T06:25:28.547Z,2.45
2022-12-04T06:27:55.500Z,2.30
2022-12-04T06:30:22.330Z,1.85
2022-12-04T06:32:48.968Z,2.10
2022-12-04T06:35:15.824Z,2.28
2022-12-04T06:37:42.573Z,2.28
2022-12-04T06:40:09.788Z,1.98
2022-12-04T06:42:36.492Z,1.80
2022-12-04T06:45:03.384Z,2.20
2022-12-04T06:47:30.058Z,2.00
2022-12-04T06:49:57.249Z,2.08
2022-12-04T06:52:24.263Z,1.98
2022-12-04T06:54:51.091Z,2.03
2022-12-04T06:57:18.075Z,2.13
2022-12-04T06:59:44.816Z,2.13
2022-12-04T07:02:12.034Z,2.20
2022-12-04T07:04:39.009Z,2.25
2022-12-04T07:07:07.947Z,2.47
2022-12-04T07:09:34.708Z,2.50
2022-12-04T07:12:01.659Z,2.60
2022-12-04T07:14:28.325Z,2.92
2022-12-04T07:16:55.102Z,3.03
2022-12-04T07:19:21.921Z,2.72
2022-12-04T07:21:48.621Z,2.80
2022-12-04T07:24:17.462Z,2.85
2022-12-04T07:26:44.403Z,2.35
2022-12-04T07:29:11.251Z,2.45
2022-12-04T07:31:38.495Z,2.33
2022-12-04T07:34:05.245Z,2.28
2022-12-04T07:36:31.972Z,2.42
2022-12-04T07:38:58.878Z,2.47
2022-12-04T07:41:25.585Z,2.25
2022-12-04T07:43:52.323Z,2.17
2022-12-04T07:46:21.848Z,2.17
2022-12-04T07:48:48.821Z,2.30
2022-12-04T07:51:19.425Z,2.17
2022-12-04T07:53:47.049Z,2.28
2022-12-04T07:56:14.865Z,2.20
2022-12-04T07:58:42.277Z,1.95
2022-12-04T08:01:21.178Z,2.20
2022-12-04T08:03:50.866Z,2.00
2022-12-04T08:06:20.221Z,2.00
2022-12-04T08:08:48.455Z,1.63
2022-12-04T08:11:18.111Z,1.90
2022-12-04T08:13:45.516Z,1.80
2022-12-04T08:16:13.300Z,2.13
2022-12-04T08:18:41.282Z,2.60
2022-12-04T08:21:11.175Z,2.60
2022-12-04T08:23:39.925Z,3.05
2022-12-04T08:26:07.465Z,3.03
2022-12-04T08:28:34.941Z,3.40
2022-12-04T08:31:06.934Z,3.55
2022-12-04T08:33:34.372Z,3.20
2022-12-04T08:36:01.271Z,3.70
2022-12-04T08:38:28.257Z,3.35
2022-12-04T08:40:55.026Z,4.35
2022-12-04T08:43:21.670Z,3.72
2022-12-04T08:45:59.284Z,3.80
2022-12-04T08:48:26.555Z,3.97
2022-12-04T08:50:53.985Z,3.45
2022-12-04T08:53:21.501Z,3.72
2022-12-04T08:55:49.817Z,3.72
2022-12-04T08:58:16.846Z,3.95
2022-12-04T09:00:44.563Z,4.53
2022-12-04T09:03:16.558Z,5.25
2022-12-04T09:05:45.840Z,5.35
2022-12-04T09:08:13.913Z,6.03
2022-12-04T09:10:41.098Z,6.57
2022-12-04T09:13:08.796Z,7.25
2022-12-04T09:15:39.995Z,8.43
2022-12-04T09:18:07.838Z,9.25
2022-12-04T09:20:35.358Z,10.82
2022-12-04T09:23:04.724Z,11.43
2022-12-04T09:25:35.387Z,11.40
2022-12-04T09:28:02.210Z,10.15
2022-12-04T09:30:29.008Z,10.30
2022-12-04T09:32:56.228Z,10.25
2022-12-04T09:35:22.969Z,10.52
2022-12-04T09:37:49.722Z,10.80
2022-12-04T09:40:36.945Z,10.18
2022-12-04T09:43:32.300Z,10.27
2022-12-04T09:46:07.852Z,9.95
2022-12-04T09:51:05.695Z,10.25
2022-12-04T09:53:45.204Z,10.02
2022-12-04T09:56:16.143Z,9.88
2022-12-04T09:58:59.657Z,10.00
2022-12-04T10:02:15.511Z,10.65
2022-12-04T10:04:42.374Z,10.40
2022-12-04T10:07:18.274Z,10.43
2022-12-04T10:09:56.009Z,12.13
2022-12-04T10:12:37.718Z,10.88
2022-12-04T10:15:04.647Z,11.13
2022-12-04T10:17:53.065Z,11.75
2022-12-04T10:20:47.850Z,11.30
2022-12-04T10:23:42.460Z,11.50
2022-12-04T10:26:16.497Z,10.38
2022-12-04T10:29:13.328Z,12.07
2022-12-04T10:31:41.502Z,11.48
2022-12-04T10:34:25.369Z,12.18
2022-12-04T10:37:02.706Z,12.52
2022-12-04T10:39:37.095Z,13.48
2022-12-04T10:42:14.308Z,13.20
2022-12-04T10:44:41.080Z,12.38
2022-12-04T10:47:11.931Z,13.23
2022-12-04T10:49:39.010Z,13.25
2022-12-04T10:52:06.638Z,13.43
2022-12-04T10:54:45.047Z,13.60
2022-12-04T10:57:13.861Z,12.75
2022-12-04T10:59:53.820Z,13.18
2022-12-04T11:02:29.802Z,12.98
2022-12-04T11:05:08.539Z,13.10
2022-12-04T11:07:43.069Z,13.52
2022-12-04T11:10:24.474Z,12.98
2022-12-04T11:13:03.191Z,12.50
2022-12-04T11:15:30.470Z,12.93
2022-12-04T11:18:08.906Z,12.70
2022-12-04T11:20:36.175Z,13.48
2022-12-04T11:23:03.024Z,13.38
2022-12-04T11:25:44.756Z,13.43
2022-12-04T11:28:39.863Z,11.68
2022-12-04T11:31:06.005Z,13.45
2022-12-04T11:33:43.089Z,12.13
2022-12-04T11:36:42.394Z,12.45
2022-12-04T11:39:29.968Z,11.68
2022-12-04T11:42:24.013Z,11.38
2022-12-04T11:45:18.663Z,10.55
2022-12-04T11:47:58.105Z,9.98
2022-12-04T11:50:30.927Z,11.55
2022-12-04T11:53:02.515Z,10.45
2022-12-04T11:55:44.415Z,11.50
2022-12-04T11:58:14.166Z,12.60
2022-12-04T12:00:52.535Z,15.30
2022-12-04T12:03:34.425Z,12.80
2022-12-04T12:06:07.487Z,11.43
2022-12-04T12:09:04.675Z,11.38
2022-12-04T12:11:42.530Z,12.55
2022-12-04T12:14:23.899Z,11.48
2022-12-04T12:17:12.481Z,11.48
2022-12-04T12:19:52.597Z,13.55
2022-12-04T12:22:57.529Z,10.82
2022-12-04T12:25:34.922Z,10.43
2022-12-04T12:28:38.241Z,9.50
2022-12-04T12:31:23.367Z,10.23
2022-12-04T12:34:11.263Z,11.77
2022-12-04T12:36:44.099Z,11.48
2022-12-04T12:39:24.322Z,11.05
2022-12-04T12:41:53.977Z,10.93
2022-12-04T12:44:26.810Z,10.93
2022-12-04T12:46:58.369Z,10.90
2022-12-04T12:49:36.747Z,10.30
2022-12-04T12:52:17.327Z,11.45
2022-12-04T12:55:20.303Z,10.85
2022-12-04T12:57:57.803Z,10.40
2022-12-04T13:00:25.709Z,10.07
2022-12-04T13:03:23.682Z,10.85
2022-12-04T13:05:56.005Z,11.02
2022-12-04T13:09:04.218Z,11.25
2022-12-04T13:11:32.643Z,10.18
2022-12-04T13:14:03.032Z,10.75
2022-12-04T13:16:38.095Z,11.05
2022-12-04T13:19:26.458Z,10.65
2022-12-04T13:22:11.608Z,10.73
2022-12-04T13:25:16.880Z,11.43
2022-12-04T13:28:21.685Z,10.70
2022-12-04T13:30:57.026Z,12.25
2022-12-04T13:34:01.079Z,11.98
2022-12-04T13:36:38.376Z,11.73
2022-12-04T13:39:27.023Z,11.02
2022-12-04T13:42:00.663Z,12.10
2022-12-04T13:44:28.745Z,11.45
2022-12-04T13:47:06.931Z,12.35
2022-12-04T13:49:36.303Z,11.50
2022-12-04T13:52:06.373Z,11.73
2022-12-04T13:54:37.231Z,12.02
2022-12-04T13:57:16.846Z,11.77
2022-12-04T13:59:44.728Z,11.50
2022-12-04T14:02:35.086Z,11.38
2022-12-04T14:05:11.228Z,10.85
2022-12-04T14:07:40.243Z,10.80
2022-12-04T14:10:29.616Z,10.95
2022-12-04T14:13:01.723Z,11.32
2022-12-04T14:15:31.885Z,11.35
2022-12-04T14:18:13.284Z,10.73
2022-12-04T14:20:43.621Z,10.70
2022-12-04T14:23:26.559Z,10.73
2022-12-04T14:25:57.257Z,10.30
2022-12-04T14:28:42.181Z,11.13
2022-12-04T14:31:15.356Z,10.73
2022-12-04T14:33:48.323Z,11.35
2022-12-04T14:36:36.594Z,10.23
2022-12-04T14:39:12.167Z,10.48
2022-12-04T14:44:06.452Z,9.80
2022-12-04T14:46:48.711Z,10.55
2022-12-04T14:49:44.671Z,10.65
2022-12-04T14:52:25.707Z,11.30
2022-12-04T14:55:23.609Z,11.40
2022-12-04T14:58:22.446Z,12.38
2022-12-04T15:00:54.400Z,12.52
2022-12-04T15:03:22.197Z,12.65
2022-12-04T15:05:51.061Z,12.57
2022-12-04T15:08:20.327Z,12.80
2022-12-04T15:11:10.268Z,12.43
2022-12-04T15:13:38.628Z,12.77
2022-12-04T15:16:09.969Z,12.85
2022-12-04T15:18:39.644Z,14.80
2022-12-04T15:21:07.456Z,13.05
2022-12-04T15:23:34.174Z,13.85
2022-12-04T15:26:04.663Z,13.95
2022-12-04T15:28:40.632Z,15.85
2022-12-04T15:31:31.024Z,15.13
2022-12-04T15:34:02.806Z,16.38
2022-12-04T15:36:46.911Z,16.55
2022-12-04T15:39:26.010Z,16.17
2022-12-04T15:42:03.728Z,15.95
2022-12-04T15:44:35.659Z,15.73
2022-12-04T15:47:15.233Z,15.73
2022-12-04T15:49:41.977Z,15.40
2022-12-04T15:52:20.854Z,14.85
2022-12-04T15:54:56.576Z,15.05
2022-12-04T15:57:34.242Z,14.45
2022-12-04T16:00:05.154Z,14.55
2022-12-04T16:02:32.993Z,15.57
2022-12-04T16:05:14.569Z,15.80
2022-12-04T16:07:56.107Z,14.65
2022-12-04T16:10:28.732Z,13.63
2022-12-04T16:13:00.867Z,13.68
2022-12-04T16:15:40.955Z,13.77
2022-12-04T16:18:11.142Z,13.88
2022-12-04T16:20:38.888Z,13.65
2022-12-04T16:23:05.865Z,14.00
2022-12-04T16:25:32.944Z,12.93
2022-12-04T16:28:00.613Z,12.65
2022-12-04T16:30:31.208Z,13.75
2022-12-04T16:32:57.868Z,12.50
2022-12-04T16:35:24.569Z,12.77
2022-12-04T16:37:51.607Z,13.95
2022-12-04T16:40:18.343Z,13.52
2022-12-04T16:42:45.037Z,13.48
2022-12-04T16:45:31.952Z,13.48
2022-12-04T16:47:59.142Z,13.43
2022-12-04T16:50:27.016Z,14.35
2022-12-04T16:52:54.201Z,13.80
2022-12-04T16:55:22.241Z,14.55
2022-12-04T16:57:49.029Z,13.32
2022-12-04T17:00:17.950Z,14.60
2022-12-04T17:02:45.495Z,13.73
2022-12-04T17:05:22.468Z,14.15
2022-12-04T17:07:49.642Z,13.98
2022-12-04T17:10:23.295Z,14.20
2022-12-04T17:12:53.579Z,13.48
2022-12-04T17:15:20.364Z,14.32
2022-12-04T17:17:47.370Z,13.63
2022-12-04T17:20:17.145Z,14.25
2022-12-04T17:22:43.845Z,14.48
2022-12-04T17:25:11.772Z,14.40
2022-12-04T17:27:39.060Z,14.80
2022-12-04T17:30:07.149Z,13.77
2022-12-04T17:32:37.750Z,15.50
2022-12-04T17:35:06.463Z,14.38
2022-12-04T17:37:34.679Z,14.52
2022-12-04T17:40:01.514Z,14.20
2022-12-04T17:42:28.249Z,14.20
2022-12-04T17:44:55.410Z,14.60
2022-12-04T17:47:22.395Z,14.25
2022-12-04T17:49:49.390Z,14.45
2022-12-04T17:52:16.258Z,14.45
2022-12-04T17:54:42.869Z,14.77
2022-12-04T17:57:09.545Z,15.05
2022-12-04T17:59:36.303Z,13.88
2022-12-04T18:02:03.070Z,15.45
2022-12-04T18:04:29.864Z,14.55
2022-12-04T18:06:56.698Z,15.32
2022-12-04T18:09:23.441Z,15.15
2022-12-04T18:11:50.248Z,14.32
2022-12-04T18:14:19.424Z,15.68
2022-12-04T18:16:54.265Z,14.60
2022-12-04T18:19:23.036Z,15.25
2022-12-04T18:21:50.499Z,14.70
2022-12-04T18:24:18.191Z,14.98
2022-12-04T18:26:47.993Z,16.02
2022-12-04T18:29:17.905Z,14.77
2022-12-04T18:31:46.049Z,15.57
2022-12-04T18:34:13.304Z,17.00
2022-12-04T18:36:41.227Z,16.00
2022-12-04T18:39:12.539Z,16.70
2022-12-04T18:41:39.862Z,16.00
2022-12-04T18:44:06.523Z,16.13
2022-12-04T18:46:33.549Z,15.55
2022-12-04T18:49:01.124Z,16.00
2022-12-04T18:51:31.143Z,16.77
2022-12-04T18:54:04.017Z,15.90
2022-12-04T18:56:32.739Z,15.82
2022-12-04T18:59:01.995Z,17.50
2022-12-04T19:01:29.364Z,16.80
2022-12-04T19:04:01.402Z,16.38
2022-12-04T19:06:33.668Z,16.27
2022-12-04T19:09:02.484Z,18.05
2022-12-04T19:11:29.339Z,17.83
2022-12-04T19:13:57.850Z,17.70
2022-12-04T19:16:24.969Z,18.30
2022-12-04T19:18:51.746Z,16.63
2022-12-04T19:21:18.698Z,17.15
2022-12-04T19:23:56.585Z,17.65
2022-12-04T19:26:23.677Z,17.42
2022-12-04T19:28:51.890Z,16.30
2022-12-04T19:31:20.628Z,17.38
2022-12-04T19:33:47.807Z,17.65
2022-12-04T19:36:15.181Z,17.92
2022-12-04T19:38:42.609Z,18.05
2022-12-04T19:41:14.478Z,19.60
2022-12-04T19:43:44.242Z,18.95
2022-12-04T19:46:13.411Z,19.15
2022-12-04T19:48:40.448Z,18.67
2022-12-04T19:51:11.270Z,19.13
2022-12-04T19:53:41.103Z,19.00
2022-12-04T19:56:10.893Z,18.88
2022-12-04T19:58:37.930Z,17.63
2022-12-04T20:01:07.160Z,19.80
2022-12-04T20:03:35.217Z,19.42
2022-12-04T20:06:07.167Z,19.42
2022-12-04T20:08:34.750Z,19.67
2022-12-04T20:11:06.662Z,19.00
2022-12-04T20:13:37.888Z,17.88
2022-12-04T20:16:06.926Z,19.23
2022-12-04T20:18:34.405Z,18.65
2022-12-04T20:21:01.579Z,19.15
2022-12-04T20:23:29.233Z,18.95
2022-12-04T20:25:55.990Z,19.00
2022-12-04T20:28:22.730Z,19.40
2022-12-04T20:30:49.928Z,18.95
2022-12-04T20:33:17.100Z,19.52
2022-12-04T20:35:43.890Z,18.35
2022-12-04T20:38:10.729Z,19.08
2022-12-04T20:40:37.547Z,19.52
2022-12-04T20:43:04.234Z,19.95
2022-12-04T20:45:31.297Z,19.05
2022-12-04T20:47:58.071Z,19.92
2022-12-04T20:50:25.479Z,19.27
2022-12-04T20:52:52.564Z,18.88
2022-12-04T20:55:19.355Z,20.23
2022-12-04T20:57:46.030Z,20.20
2022-12-04T21:00:13.126Z,18.75
2022-12-04T21:02:40.258Z,19.75
2022-12-04T21:05:07.771Z,19.13
2022-12-04T21:07:34.566Z,18.65
2022-12-04T21:10:02.001Z,19.63
2022-12-04T21:12:47.136Z,19.40
2022-12-04T21:15:32.499Z,18.83
2022-12-04T21:18:01.439Z,19.00
2022-12-04T21:20:28.292Z,18.58
2022-12-04T21:22:55.358Z,19.10
2022-12-04T21:25:22.107Z,18.25
2022-12-04T21:27:48.874Z,17.85
2022-12-04T21:30:15.581Z,17.83
2022-12-04T21:32:42.342Z,17.65
2022-12-04T21:35:09.404Z,18.55
2022-12-04T21:37:37.153Z,18.52
2022-12-04T21:40:04.971Z,18.35
2022-12-04T21:42:31.755Z,17.48
2022-12-04T21:45:03.359Z,18.65
2022-12-04T21:47:30.395Z,17.92
2022-12-04T21:49:57.561Z,17.70
2022-12-04T21:52:25.398Z,16.40
2022-12-04T21:54:53.695Z,16.40
2022-12-04T21:57:21.957Z,16.67
2022-12-04T21:59:50.951Z,17.27
2022-12-04T22:02:17.733Z,18.08
2022-12-04T22:04:44.498Z,17.60
2022-12-04T22:07:11.243Z,17.65
2022-12-04T22:09:38.639Z,18.15
2022-12-04T22:12:26.292Z,18.63
2022-12-04T22:14:53.273Z,17.67
2022-12-04T22:17:20.072Z,17.20
2022-12-04T22:19:46.773Z,17.40
2022-12-04T22:22:13.542Z,17.70
2022-12-04T22:24:40.219Z,16.58
2022-12-04T22:27:06.895Z,16.80
2022-12-04T22:29:49.735Z,16.92
2022-12-04T22:32:17.309Z,17.67
2022-12-04T22:34:44.034Z,16.65
2022-12-04T22:37:10.714Z,15.35
2022-12-04T22:39:37.444Z,17.00
2022-12-04T22:42:04.300Z,17.45
2022-12-04T22:44:31.046Z,17.38
2022-12-04T22:46:57.860Z,16.23
2022-12-04T22:49:24.829Z,17.95
2022-12-04T22:51:51.526Z,17.83
2022-12-04T22:54:18.246Z,17.52
2022-12-04T22:56:44.977Z,17.98
2022-12-04T22:59:11.796Z,16.77
2022-12-04T23:01:38.527Z,17.00
2022-12-04T23:04:05.519Z,16.77
2022-12-04T23:06:33.580Z,17.98
2022-12-04T23:09:03.962Z,18.17
2022-12-04T23:11:31.266Z,16.67
2022-12-04T23:14:00.690Z,18.42
2022-12-04T23:16:29.797Z,17.30
2022-12-04T23:18:57.332Z,17.80
2022-12-04T23:21:24.753Z,17.90
2022-12-04T23:23:53.193Z,17.48
2022-12-04T23:26:22.810Z,18.40
2022-12-04T23:28:49.869Z,17.55
2022-12-04T23:31:17.618Z,17.80
2022-12-04T23:33:44.478Z,18.13
2022-12-04T23:36:12.434Z,18.33
2022-12-04T23:38:40.328Z,18.02
2022-12-04T23:41:21.587Z,18.20
2022-12-04T23:43:49.480Z,18.63
2022-12-04T23:46:19.772Z,19.02
2022-12-04T23:48:47.478Z,18.65
2022-12-04T23:51:16.150Z,19.52
2022-12-04T23:53:43.267Z,18.67
2022-12-04T23:56:19.693Z,20.25
2022-12-04T23:58:48.220Z,20.00
